sensor_id;sensor_type;location;lat;lon;timestamp;pressure;altitude;pressure_sealevel;temperature;humidity
15932;BME280;8065;49.520;11.284;2024-01-30T00:01:52;98913.28;;;5.68;68.23
15932;BME280;8065;49.520;11.284;2024-01-30T00:04:21;98918.16;;;5.54;68.21
15932;BME280;8065;49.520;11.284;2024-01-30T00:06:50;98910.31;;;5.59;67.89
15932;BME280;8065;49.520;11.284;2024-01-30T00:09:18;98916.81;;;5.52;68.42
15932;BME280;8065;49.520;11.284;2024-01-30T00:11:47;98917.88;;;5.51;68.32
15932;BME280;8065;49.520;11.284;2024-01-30T00:14:15;98921.09;;;5.58;68.13
15932;BME280;8065;49.520;11.284;2024-01-30T00:16:46;98923.44;;;5.54;68.50
15932;BME280;8065;49.520;11.284;2024-01-30T00:19:14;98925.13;;;5.66;68.05
15932;BME280;8065;49.520;11.284;2024-01-30T00:21:43;98921.50;;;5.72;67.74
15932;BME280;8065;49.520;11.284;2024-01-30T00:24:11;98920.94;;;5.70;67.51
15932;BME280;8065;49.520;11.284;2024-01-30T00:26:39;98928.25;;;5.63;67.97
15932;BME280;8065;49.520;11.284;2024-01-30T00:29:08;98922.25;;;5.67;67.78
15932;BME280;8065;49.520;11.284;2024-01-30T00:31:36;98924.97;;;5.77;67.51
15932;BME280;8065;49.520;11.284;2024-01-30T00:34:07;98924.72;;;5.79;67.51
15932;BME280;8065;49.520;11.284;2024-01-30T00:36:35;98921.50;;;5.72;67.54
15932;BME280;8065;49.520;11.284;2024-01-30T00:39:03;98917.75;;;5.68;67.56
15932;BME280;8065;49.520;11.284;2024-01-30T00:41:34;98923.63;;;5.75;67.60
15932;BME280;8065;49.520;11.284;2024-01-30T00:44:02;98912.53;;;5.73;67.18
15932;BME280;8065;49.520;11.284;2024-01-30T00:46:31;98919.81;;;5.60;67.73
15932;BME280;8065;49.520;11.284;2024-01-30T00:48:59;98904.53;;;5.63;67.99
15932;BME280;8065;49.520;11.284;2024-01-30T00:51:30;98910.00;;;5.56;67.66
15932;BME280;8065;49.520;11.284;2024-01-30T00:53:58;98911.41;;;5.64;67.43
15932;BME280;8065;49.520;11.284;2024-01-30T00:56:27;98909.22;;;5.55;67.57
15932;BME280;8065;49.520;11.284;2024-01-30T00:58:56;98904.13;;;5.49;67.73
15932;BME280;8065;49.520;11.284;2024-01-30T01:01:24;98898.66;;;5.55;67.57
15932;BME280;8065;49.520;11.284;2024-01-30T01:03:53;98901.81;;;5.52;67.90
15932;BME280;8065;49.520;11.284;2024-01-30T01:06:21;98893.94;;;5.57;67.74
15932;BME280;8065;49.520;11.284;2024-01-30T01:08:52;98901.84;;;5.57;67.19
15932;BME280;8065;49.520;11.284;2024-01-30T01:11:20;98897.63;;;5.56;67.30
15932;BME280;8065;49.520;11.284;2024-01-30T01:13:48;98891.25;;;5.52;67.45
15932;BME280;8065;49.520;11.284;2024-01-30T01:16:17;98897.88;;;5.55;67.43
15932;BME280;8065;49.520;11.284;2024-01-30T01:18:45;98902.44;;;5.65;66.92
15932;BME280;8065;49.520;11.284;2024-01-30T01:21:14;98897.13;;;5.59;67.10
15932;BME280;8065;49.520;11.284;2024-01-30T01:23:42;98889.22;;;5.59;66.97
15932;BME280;8065;49.520;11.284;2024-01-30T01:26:13;98894.78;;;5.63;66.68
15932;BME280;8065;49.520;11.284;2024-01-30T01:28:41;98893.00;;;5.69;66.61
15932;BME280;8065;49.520;11.284;2024-01-30T01:31:09;98894.00;;;5.63;66.14
15932;BME280;8065;49.520;11.284;2024-01-30T01:33:37;98890.22;;;5.53;66.48
15932;BME280;8065;49.520;11.284;2024-01-30T01:36:06;98895.56;;;5.64;66.35
15932;BME280;8065;49.520;11.284;2024-01-30T01:38:34;98898.31;;;5.74;66.23
15932;BME280;8065;49.520;11.284;2024-01-30T01:41:03;98894.53;;;5.65;65.93
15932;BME280;8065;49.520;11.284;2024-01-30T01:43:34;98896.31;;;5.86;65.59
15932;BME280;8065;49.520;11.284;2024-01-30T01:46:03;98892.50;;;5.72;65.53
15932;BME280;8065;49.520;11.284;2024-01-30T01:48:32;98882.19;;;5.70;65.75
15932;BME280;8065;49.520;11.284;2024-01-30T01:51:01;98880.72;;;5.84;65.35
15932;BME280;8065;49.520;11.284;2024-01-30T01:53:30;98881.44;;;5.75;65.26
15932;BME280;8065;49.520;11.284;2024-01-30T01:55:58;98882.34;;;5.58;65.27
15932;BME280;8065;49.520;11.284;2024-01-30T01:58:27;98884.22;;;5.63;65.62
15932;BME280;8065;49.520;11.284;2024-01-30T02:00:59;98883.94;;;5.59;65.56
15932;BME280;8065;49.520;11.284;2024-01-30T02:03:28;98884.44;;;5.56;65.66
15932;BME280;8065;49.520;11.284;2024-01-30T02:05:56;98885.78;;;5.59;65.38
15932;BME280;8065;49.520;11.284;2024-01-30T02:08:25;98881.34;;;5.65;65.11
15932;BME280;8065;49.520;11.284;2024-01-30T02:10:53;98886.63;;;5.65;65.14
15932;BME280;8065;49.520;11.284;2024-01-30T02:13:22;98878.88;;;5.53;65.25
15932;BME280;8065;49.520;11.284;2024-01-30T02:15:50;98880.22;;;5.55;65.44
15932;BME280;8065;49.520;11.284;2024-01-30T02:18:22;98880.47;;;5.54;65.47
15932;BME280;8065;49.520;11.284;2024-01-30T02:20:53;98880.47;;;5.54;65.52
15932;BME280;8065;49.520;11.284;2024-01-30T02:23:24;98876.28;;;5.58;65.35
15932;BME280;8065;49.520;11.284;2024-01-30T02:25:53;98868.63;;;5.56;65.01
15932;BME280;8065;49.520;11.284;2024-01-30T02:28:21;98876.81;;;5.60;65.25
15932;BME280;8065;49.520;11.284;2024-01-30T02:30:49;98865.94;;;5.51;65.14
15932;BME280;8065;49.520;11.284;2024-01-30T02:33:18;98869.13;;;5.53;65.17
15932;BME280;8065;49.520;11.284;2024-01-30T02:35:47;98863.25;;;5.46;65.11
15932;BME280;8065;49.520;11.284;2024-01-30T02:38:15;98851.91;;;5.46;65.50
15932;BME280;8065;49.520;11.284;2024-01-30T02:40:46;98850.53;;;5.38;65.43
15932;BME280;8065;49.520;11.284;2024-01-30T02:43:16;98843.56;;;5.27;65.56
15932;BME280;8065;49.520;11.284;2024-01-30T02:45:44;98831.50;;;5.31;65.46
15932;BME280;8065;49.520;11.284;2024-01-30T02:48:13;98842.38;;;5.40;65.19
15932;BME280;8065;49.520;11.284;2024-01-30T02:50:41;98837.09;;;5.40;65.33
15932;BME280;8065;49.520;11.284;2024-01-30T02:53:09;98834.81;;;5.48;64.87
15932;BME280;8065;49.520;11.284;2024-01-30T02:55:37;98828.66;;;5.38;65.33
15932;BME280;8065;49.520;11.284;2024-01-30T02:58:08;98823.75;;;5.51;64.96
15932;BME280;8065;49.520;11.284;2024-01-30T03:00:36;98821.75;;;5.64;64.62
15932;BME280;8065;49.520;11.284;2024-01-30T03:03:05;98831.91;;;5.50;64.63
15932;BME280;8065;49.520;11.284;2024-01-30T03:05:33;98825.44;;;5.63;64.43
15932;BME280;8065;49.520;11.284;2024-01-30T03:08:01;98828.13;;;5.68;64.37
15932;BME280;8065;49.520;11.284;2024-01-30T03:10:30;98831.28;;;5.70;64.09
15932;BME280;8065;49.520;11.284;2024-01-30T03:12:58;98828.94;;;5.73;63.94
15932;BME280;8065;49.520;11.284;2024-01-30T03:15:29;98818.69;;;5.77;63.69
15932;BME280;8065;49.520;11.284;2024-01-30T03:17:57;98825.31;;;5.79;63.72
15932;BME280;8065;49.520;11.284;2024-01-30T03:20:26;98825.59;;;5.83;63.58
15932;BME280;8065;49.520;11.284;2024-01-30T03:22:55;98829.19;;;5.72;63.49
15932;BME280;8065;49.520;11.284;2024-01-30T03:25:23;98840.22;;;5.64;63.73
15932;BME280;8065;49.520;11.284;2024-01-30T03:27:52;98841.13;;;5.47;64.31
15932;BME280;8065;49.520;11.284;2024-01-30T03:30:20;98846.44;;;5.52;64.48
15932;BME280;8065;49.520;11.284;2024-01-30T03:32:51;98850.66;;;5.53;64.70
15932;BME280;8065;49.520;11.284;2024-01-30T03:35:19;98844.47;;;5.70;64.37
15932;BME280;8065;49.520;11.284;2024-01-30T03:37:47;98837.16;;;5.77;63.81
15932;BME280;8065;49.520;11.284;2024-01-30T03:40:16;98836.13;;;5.83;64.10
15932;BME280;8065;49.520;11.284;2024-01-30T03:42:44;98834.34;;;5.88;63.96
15932;BME280;8065;49.520;11.284;2024-01-30T03:45:12;98833.78;;;5.86;64.07
15932;BME280;8065;49.520;11.284;2024-01-30T03:47:43;98847.31;;;5.90;64.32
15932;BME280;8065;49.520;11.284;2024-01-30T03:50:14;98842.31;;;5.94;64.27
15932;BME280;8065;49.520;11.284;2024-01-30T03:52:42;98845.75;;;5.94;63.86
15932;BME280;8065;49.520;11.284;2024-01-30T03:55:10;98835.16;;;5.89;64.16
15932;BME280;8065;49.520;11.284;2024-01-30T03:57:39;98832.00;;;5.92;64.10
15932;BME280;8065;49.520;11.284;2024-01-30T04:00:08;98835.16;;;5.89;64.37
15932;BME280;8065;49.520;11.284;2024-01-30T04:02:37;98843.00;;;5.84;64.34
15932;BME280;8065;49.520;11.284;2024-01-30T04:05:06;98840.13;;;5.85;64.23
15932;BME280;8065;49.520;11.284;2024-01-30T04:07:37;98845.09;;;5.82;64.07
15932;BME280;8065;49.520;11.284;2024-01-30T04:10:07;98846.19;;;5.86;64.19
15932;BME280;8065;49.520;11.284;2024-01-30T04:12:35;98846.09;;;5.76;64.55
15932;BME280;8065;49.520;11.284;2024-01-30T04:15:04;98839.25;;;5.75;64.65
15932;BME280;8065;49.520;11.284;2024-01-30T04:17:33;98842.63;;;5.70;64.59
15932;BME280;8065;49.520;11.284;2024-01-30T04:20:01;98844.22;;;5.71;64.46
15932;BME280;8065;49.520;11.284;2024-01-30T04:22:30;98841.03;;;5.69;64.68
15932;BME280;8065;49.520;11.284;2024-01-30T04:25:01;98843.38;;;5.66;64.88
15932;BME280;8065;49.520;11.284;2024-01-30T04:27:29;98849.22;;;5.68;64.82
15932;BME280;8065;49.520;11.284;2024-01-30T04:29:57;98841.25;;;5.63;64.98
15932;BME280;8065;49.520;11.284;2024-01-30T04:32:26;98843.63;;;5.64;64.97
15932;BME280;8065;49.520;11.284;2024-01-30T04:34:54;98845.44;;;5.58;64.87
15932;BME280;8065;49.520;11.284;2024-01-30T04:37:22;98848.31;;;5.57;65.29
15932;BME280;8065;49.520;11.284;2024-01-30T04:39:51;98850.41;;;5.55;65.16
15932;BME280;8065;49.520;11.284;2024-01-30T04:42:22;98851.66;;;5.47;65.51
15932;BME280;8065;49.520;11.284;2024-01-30T04:44:50;98855.91;;;5.48;65.65
15932;BME280;8065;49.520;11.284;2024-01-30T04:47:18;98853.22;;;5.43;65.81
15932;BME280;8065;49.520;11.284;2024-01-30T04:49:46;98855.84;;;5.43;65.83
15932;BME280;8065;49.520;11.284;2024-01-30T04:52:15;98851.03;;;5.35;66.14
15932;BME280;8065;49.520;11.284;2024-01-30T04:54:44;98858.19;;;5.40;65.85
15932;BME280;8065;49.520;11.284;2024-01-30T04:57:12;98864.25;;;5.40;66.37
15932;BME280;8065;49.520;11.284;2024-01-30T04:59:43;98859.69;;;5.31;66.42
15932;BME280;8065;49.520;11.284;2024-01-30T05:02:11;98864.16;;;5.30;66.42
15932;BME280;8065;49.520;11.284;2024-01-30T05:04:40;98870.03;;;5.37;65.96
15932;BME280;8065;49.520;11.284;2024-01-30T05:07:09;98870.06;;;5.42;65.81
15932;BME280;8065;49.520;11.284;2024-01-30T05:09:37;98878.03;;;5.47;65.98
15932;BME280;8065;49.520;11.284;2024-01-30T05:12:07;98878.28;;;5.46;65.85
15932;BME280;8065;49.520;11.284;2024-01-30T05:14:35;98877.97;;;5.42;65.96
15932;BME280;8065;49.520;11.284;2024-01-30T05:17:06;98873.81;;;5.46;65.99
15932;BME280;8065;49.520;11.284;2024-01-30T05:19:35;98874.28;;;5.43;66.09
15932;BME280;8065;49.520;11.284;2024-01-30T05:22:04;98878.38;;;5.29;66.71
15932;BME280;8065;49.520;11.284;2024-01-30T05:24:33;98883.16;;;5.32;66.77
15932;BME280;8065;49.520;11.284;2024-01-30T05:27:01;98881.56;;;5.31;67.11
15932;BME280;8065;49.520;11.284;2024-01-30T05:29:30;98885.28;;;5.35;66.69
15932;BME280;8065;49.520;11.284;2024-01-30T05:31:58;98890.81;;;5.34;67.00
15932;BME280;8065;49.520;11.284;2024-01-30T05:34:29;98886.53;;;5.27;67.00
15932;BME280;8065;49.520;11.284;2024-01-30T05:36:57;98885.97;;;5.25;66.79
15932;BME280;8065;49.520;11.284;2024-01-30T05:39:28;98886.63;;;5.11;67.53
15932;BME280;8065;49.520;11.284;2024-01-30T05:41:58;98888.13;;;5.02;67.86
15932;BME280;8065;49.520;11.284;2024-01-30T05:44:26;98888.19;;;5.07;67.51
15932;BME280;8065;49.520;11.284;2024-01-30T05:46:54;98890.31;;;5.10;67.80
15932;BME280;8065;49.520;11.284;2024-01-30T05:49:23;98895.78;;;5.03;67.78
15932;BME280;8065;49.520;11.284;2024-01-30T05:51:54;98894.97;;;5.03;67.54
15932;BME280;8065;49.520;11.284;2024-01-30T05:54:22;98895.97;;;4.97;68.00
15932;BME280;8065;49.520;11.284;2024-01-30T05:56:50;98904.28;;;4.88;68.76
15932;BME280;8065;49.520;11.284;2024-01-30T05:59:18;98895.53;;;4.83;68.76
15932;BME280;8065;49.520;11.284;2024-01-30T06:01:47;98903.38;;;4.78;68.99
15932;BME280;8065;49.520;11.284;2024-01-30T06:04:15;98899.38;;;4.75;69.09
15932;BME280;8065;49.520;11.284;2024-01-30T06:06:43;98898.91;;;4.78;68.85
15932;BME280;8065;49.520;11.284;2024-01-30T06:09:14;98892.03;;;4.77;69.18
15932;BME280;8065;49.520;11.284;2024-01-30T06:11:43;98898.34;;;4.76;69.23
15932;BME280;8065;49.520;11.284;2024-01-30T06:14:11;98902.25;;;4.74;69.09
15932;BME280;8065;49.520;11.284;2024-01-30T06:16:39;98900.91;;;4.71;69.53
15932;BME280;8065;49.520;11.284;2024-01-30T06:19:07;98902.81;;;4.76;69.20
15932;BME280;8065;49.520;11.284;2024-01-30T06:21:35;98900.00;;;4.82;68.89
15932;BME280;8065;49.520;11.284;2024-01-30T06:24:05;98902.09;;;4.80;69.00
15932;BME280;8065;49.520;11.284;2024-01-30T06:26:36;98900.78;;;4.83;68.89
15932;BME280;8065;49.520;11.284;2024-01-30T06:29:04;98891.84;;;4.84;69.00
15932;BME280;8065;49.520;11.284;2024-01-30T06:31:33;98901.78;;;4.77;69.42
15932;BME280;8065;49.520;11.284;2024-01-30T06:34:01;98899.03;;;4.88;68.83
15932;BME280;8065;49.520;11.284;2024-01-30T06:36:29;98898.47;;;4.86;69.46
15932;BME280;8065;49.520;11.284;2024-01-30T06:38:57;98903.56;;;4.93;69.09
15932;BME280;8065;49.520;11.284;2024-01-30T06:41:26;98903.31;;;4.94;68.77
15932;BME280;8065;49.520;11.284;2024-01-30T06:43:57;98898.84;;;4.95;68.93
15932;BME280;8065;49.520;11.284;2024-01-30T06:46:26;98906.00;;;5.00;69.00
15932;BME280;8065;49.520;11.284;2024-01-30T06:48:54;98905.44;;;4.98;68.90
15932;BME280;8065;49.520;11.284;2024-01-30T06:51:22;98909.13;;;4.97;69.20
15932;BME280;8065;49.520;11.284;2024-01-30T06:53:50;98906.97;;;4.93;69.04
15932;BME280;8065;49.520;11.284;2024-01-30T06:56:19;98904.22;;;5.05;68.77
15932;BME280;8065;49.520;11.284;2024-01-30T06:58:48;98908.69;;;5.05;68.75
15932;BME280;8065;49.520;11.284;2024-01-30T07:01:19;98910.34;;;5.11;68.65
15932;BME280;8065;49.520;11.284;2024-01-30T07:03:47;98915.91;;;5.14;68.99
15932;BME280;8065;49.520;11.284;2024-01-30T07:06:15;98919.94;;;5.22;68.62
15932;BME280;8065;49.520;11.284;2024-01-30T07:08:43;98910.09;;;5.12;69.20
15932;BME280;8065;49.520;11.284;2024-01-30T07:11:18;98909.25;;;5.07;69.72
15932;BME280;8065;49.520;11.284;2024-01-30T07:13:47;98906.25;;;5.20;69.32
15932;BME280;8065;49.520;11.284;2024-01-30T07:16:15;98915.25;;;5.29;68.85
15932;BME280;8065;49.520;11.284;2024-01-30T07:18:49;98915.81;;;5.31;69.32
15932;BME280;8065;49.520;11.284;2024-01-30T07:21:18;98916.78;;;5.47;68.80
15932;BME280;8065;49.520;11.284;2024-01-30T07:23:47;98918.47;;;5.58;68.73
15932;BME280;8065;49.520;11.284;2024-01-30T07:26:15;98919.94;;;5.76;68.51
15932;BME280;8065;49.520;11.284;2024-01-30T07:28:43;98927.22;;;5.64;68.51
15932;BME280;8065;49.520;11.284;2024-01-30T07:31:12;98917.25;;;5.71;68.71
15932;BME280;8065;49.520;11.284;2024-01-30T07:33:40;98920.94;;;5.70;68.48
15932;BME280;8065;49.520;11.284;2024-01-30T07:36:11;98922.50;;;5.66;68.53
15932;BME280;8065;49.520;11.284;2024-01-30T07:38:39;98923.63;;;5.75;68.35
15932;BME280;8065;49.520;11.284;2024-01-30T07:41:08;98921.00;;;5.75;68.11
15932;BME280;8065;49.520;11.284;2024-01-30T07:43:38;98923.00;;;5.63;68.36
15932;BME280;8065;49.520;11.284;2024-01-30T07:46:06;98924.44;;;5.75;68.37
15932;BME280;8065;49.520;11.284;2024-01-30T07:48:35;98929.50;;;5.82;68.21
15932;BME280;8065;49.520;11.284;2024-01-30T07:51:03;98928.03;;;5.91;68.30
15932;BME280;8065;49.520;11.284;2024-01-30T07:53:34;98929.94;;;6.01;67.82
15932;BME280;8065;49.520;11.284;2024-01-30T07:56:03;98934.97;;;6.02;67.77
15932;BME280;8065;49.520;11.284;2024-01-30T07:58:31;98937.97;;;6.16;67.35
15932;BME280;8065;49.520;11.284;2024-01-30T08:01:00;98932.97;;;6.19;67.41
15932;BME280;8065;49.520;11.284;2024-01-30T08:03:28;98939.09;;;6.25;67.51
15932;BME280;8065;49.520;11.284;2024-01-30T08:05:56;98934.31;;;6.22;67.39
15932;BME280;8065;49.520;11.284;2024-01-30T08:08:24;98932.97;;;6.19;67.60
15932;BME280;8065;49.520;11.284;2024-01-30T08:10:56;98927.22;;;6.28;67.65
15932;BME280;8065;49.520;11.284;2024-01-30T08:13:24;98928.66;;;6.45;66.87
15932;BME280;8065;49.520;11.284;2024-01-30T08:15:52;98934.34;;;6.69;66.42
15932;BME280;8065;49.520;11.284;2024-01-30T08:18:20;98941.28;;;6.80;66.07
15932;BME280;8065;49.520;11.284;2024-01-30T08:20:49;98941.88;;;6.98;65.50
15932;BME280;8065;49.520;11.284;2024-01-30T08:23:17;98947.25;;;7.18;64.59
15932;BME280;8065;49.520;11.284;2024-01-30T08:25:45;98948.84;;;7.24;64.74
15932;BME280;8065;49.520;11.284;2024-01-30T08:28:16;98937.97;;;7.15;64.76
15932;BME280;8065;49.520;11.284;2024-01-30T08:30:44;98936.19;;;7.31;64.27
15932;BME280;8065;49.520;11.284;2024-01-30T08:33:13;98940.97;;;7.44;64.45
15932;BME280;8065;49.520;11.284;2024-01-30T08:35:41;98940.44;;;7.42;64.11
15932;BME280;8065;49.520;11.284;2024-01-30T08:38:09;98942.88;;;7.59;64.00
15932;BME280;8065;49.520;11.284;2024-01-30T08:40:38;98939.91;;;7.40;63.91
15932;BME280;8065;49.520;11.284;2024-01-30T08:43:06;98939.13;;;7.45;64.71
15932;BME280;8065;49.520;11.284;2024-01-30T08:45:38;98944.69;;;7.43;64.17
15932;BME280;8065;49.520;11.284;2024-01-30T08:48:07;98944.16;;;7.46;64.71
15932;BME280;8065;49.520;11.284;2024-01-30T08:50:36;98940.72;;;7.46;64.56
15932;BME280;8065;49.520;11.284;2024-01-30T08:53:04;98940.25;;;7.64;64.60
15932;BME280;8065;49.520;11.284;2024-01-30T08:55:32;98935.19;;;7.57;64.98
15932;BME280;8065;49.520;11.284;2024-01-30T08:58:01;98932.56;;;7.57;64.39
15932;BME280;8065;49.520;11.284;2024-01-30T09:00:30;98938.38;;;7.60;64.70
15932;BME280;8065;49.520;11.284;2024-01-30T09:03:01;98937.31;;;7.55;64.50
15932;BME280;8065;49.520;11.284;2024-01-30T09:05:29;98933.09;;;7.70;64.72
15932;BME280;8065;49.520;11.284;2024-01-30T09:07:57;98934.06;;;7.28;65.35
15932;BME280;8065;49.520;11.284;2024-01-30T09:10:26;98934.63;;;7.40;65.67
15932;BME280;8065;49.520;11.284;2024-01-30T09:12:54;98942.09;;;7.69;64.96
15932;BME280;8065;49.520;11.284;2024-01-30T09:15:23;98944.75;;;7.69;65.04
15932;BME280;8065;49.520;11.284;2024-01-30T09:17:51;98940.75;;;7.56;65.43
15932;BME280;8065;49.520;11.284;2024-01-30T09:20:22;98942.88;;;7.59;65.46
15932;BME280;8065;49.520;11.284;2024-01-30T09:22:50;98934.69;;;7.81;65.04
15932;BME280;8065;49.520;11.284;2024-01-30T09:25:18;98940.50;;;7.88;64.54
15932;BME280;8065;49.520;11.284;2024-01-30T09:27:46;98937.34;;;7.96;64.98
15932;BME280;8065;49.520;11.284;2024-01-30T09:30:15;98937.06;;;7.82;65.47
15932;BME280;8065;49.520;11.284;2024-01-30T09:32:44;98937.88;;;7.78;65.43
15932;BME280;8065;49.520;11.284;2024-01-30T09:35:12;98940.50;;;7.88;65.54
15932;BME280;8065;49.520;11.284;2024-01-30T09:37:43;98938.66;;;8.04;64.65
15932;BME280;8065;49.520;11.284;2024-01-30T09:40:11;98936.81;;;8.19;64.58
15932;BME280;8065;49.520;11.284;2024-01-30T09:42:45;98936.00;;;8.29;64.93
15932;BME280;8065;49.520;11.284;2024-01-30T09:45:17;98936.81;;;8.40;64.21
15932;BME280;8065;49.520;11.284;2024-01-30T09:47:46;98937.88;;;8.44;64.30
15932;BME280;8065;49.520;11.284;2024-01-30T09:50:15;98935.22;;;8.59;63.72
15932;BME280;8065;49.520;11.284;2024-01-30T09:52:47;98935.75;;;8.56;63.95
15932;BME280;8065;49.520;11.284;2024-01-30T09:55:15;98933.56;;;8.68;63.27
15932;BME280;8065;49.520;11.284;2024-01-30T09:57:43;98935.66;;;8.76;63.25
15932;BME280;8065;49.520;11.284;2024-01-30T10:00:13;98929.28;;;8.82;63.39
15932;BME280;8065;49.520;11.284;2024-01-30T10:02:41;98913.84;;;9.00;63.19
15932;BME280;8065;49.520;11.284;2024-01-30T10:05:11;98925.31;;;8.85;63.24
15932;BME280;8065;49.520;11.284;2024-01-30T10:07:52;98932.75;;;8.78;62.91
15932;BME280;8065;49.520;11.284;2024-01-30T10:10:22;98928.97;;;8.99;62.82
15932;BME280;8065;49.520;11.284;2024-01-30T10:12:50;98932.13;;;9.01;62.88
15932;BME280;8065;49.520;11.284;2024-01-30T10:15:18;98922.19;;;9.32;62.47
15932;BME280;8065;49.520;11.284;2024-01-30T10:17:47;98922.41;;;9.80;61.18
15932;BME280;8065;49.520;11.284;2024-01-30T10:20:15;98924.59;;;10.07;60.59
15932;BME280;8065;49.520;11.284;2024-01-30T10:22:44;98917.75;;;10.35;59.87
15932;BME280;8065;49.520;11.284;2024-01-30T10:25:15;98914.13;;;10.73;59.23
15932;BME280;8065;49.520;11.284;2024-01-30T10:27:45;98917.19;;;10.86;58.26
15932;BME280;8065;49.520;11.284;2024-01-30T10:30:13;98917.31;;;10.75;57.97
15932;BME280;8065;49.520;11.284;2024-01-30T10:32:42;98923.13;;;10.77;58.17
15932;BME280;8065;49.520;11.284;2024-01-30T10:35:10;98919.91;;;10.80;58.43
15932;BME280;8065;49.520;11.284;2024-01-30T10:37:38;98920.59;;;10.67;58.89
15932;BME280;8065;49.520;11.284;2024-01-30T10:40:08;98915.03;;;10.64;58.42
15932;BME280;8065;49.520;11.284;2024-01-30T10:42:42;98918.66;;;10.73;58.39
15932;BME280;8065;49.520;11.284;2024-01-30T10:45:12;98915.72;;;10.74;58.64
15932;BME280;8065;49.520;11.284;2024-01-30T10:47:44;98916.63;;;10.65;59.28
15932;BME280;8065;49.520;11.284;2024-01-30T10:50:16;98919.78;;;10.91;58.72
15932;BME280;8065;49.520;11.284;2024-01-30T10:52:44;98906.28;;;10.87;58.76
15932;BME280;8065;49.520;11.284;2024-01-30T10:55:13;98909.38;;;10.94;58.68
15932;BME280;8065;49.520;11.284;2024-01-30T10:57:46;98916.19;;;10.81;58.30
15932;BME280;8065;49.520;11.284;2024-01-30T11:00:15;98909.28;;;10.80;58.61
15932;BME280;8065;49.520;11.284;2024-01-30T11:02:47;98914.47;;;11.14;58.73
15932;BME280;8065;49.520;11.284;2024-01-30T11:05:23;98905.91;;;11.36;58.33
15932;BME280;8065;49.520;11.284;2024-01-30T11:07:52;98903.31;;;11.31;58.53
15932;BME280;8065;49.520;11.284;2024-01-30T11:10:24;98902.50;;;11.49;58.16
15932;BME280;8065;49.520;11.284;2024-01-30T11:12:55;98901.13;;;11.71;57.74
15932;BME280;8065;49.520;11.284;2024-01-30T11:15:24;98905.19;;;11.87;57.62
15932;BME280;8065;49.520;11.284;2024-01-30T11:17:52;98901.19;;;12.03;57.49
15932;BME280;8065;49.520;11.284;2024-01-30T11:20:21;98896.28;;;11.78;57.65
15932;BME280;8065;49.520;11.284;2024-01-30T11:22:51;98892.81;;;11.59;57.60
15932;BME280;8065;49.520;11.284;2024-01-30T11:25:21;98889.00;;;11.46;57.99
15932;BME280;8065;49.520;11.284;2024-01-30T11:27:51;98890.13;;;11.59;58.06
15932;BME280;8065;49.520;11.284;2024-01-30T11:30:26;98887.78;;;11.38;58.15
15932;BME280;8065;49.520;11.284;2024-01-30T11:33:01;98892.81;;;11.59;57.52
15932;BME280;8065;49.520;11.284;2024-01-30T11:35:32;98889.06;;;11.60;58.39
15932;BME280;8065;49.520;11.284;2024-01-30T11:38:01;98884.25;;;11.80;57.96
15932;BME280;8065;49.520;11.284;2024-01-30T11:40:31;98880.13;;;11.88;57.81
15932;BME280;8065;49.520;11.284;2024-01-30T11:43:02;98874.66;;;11.98;57.51
15932;BME280;8065;49.520;11.284;2024-01-30T11:45:34;98883.50;;;11.94;57.77
15932;BME280;8065;49.520;11.284;2024-01-30T11:48:04;98869.72;;;12.05;57.65
15932;BME280;8065;49.520;11.284;2024-01-30T11:50:33;98871.97;;;11.98;57.68
15932;BME280;8065;49.520;11.284;2024-01-30T11:53:04;98866.78;;;12.21;57.76
15932;BME280;8065;49.520;11.284;2024-01-30T11:55:33;98871.34;;;12.34;57.68
15932;BME280;8065;49.520;11.284;2024-01-30T11:58:03;98872.31;;;12.24;57.06
15932;BME280;8065;49.520;11.284;2024-01-30T12:00:34;98864.44;;;12.46;57.16
15932;BME280;8065;49.520;11.284;2024-01-30T12:03:03;98856.94;;;12.62;57.28
15932;BME280;8065;49.520;11.284;2024-01-30T12:05:32;98857.44;;;12.64;57.02
15932;BME280;8065;49.520;11.284;2024-01-30T12:08:01;98848.25;;;12.57;57.53
15932;BME280;8065;49.520;11.284;2024-01-30T12:10:30;98847.75;;;12.41;57.15
15932;BME280;8065;49.520;11.284;2024-01-30T12:13:01;98843.00;;;12.24;57.27
15932;BME280;8065;49.520;11.284;2024-01-30T12:15:30;98852.19;;;12.45;57.20
15932;BME280;8065;49.520;11.284;2024-01-30T12:18:08;98850.22;;;12.51;57.24
15932;BME280;8065;49.520;11.284;2024-01-30T12:20:36;98840.16;;;12.48;56.98
15932;BME280;8065;49.520;11.284;2024-01-30T12:23:04;98834.41;;;12.41;57.28
15932;BME280;8065;49.520;11.284;2024-01-30T12:25:33;98837.19;;;12.36;57.69
15932;BME280;8065;49.520;11.284;2024-01-30T12:28:02;98834.22;;;12.51;57.40
15932;BME280;8065;49.520;11.284;2024-01-30T12:30:31;98829.97;;;12.50;57.37
15932;BME280;8065;49.520;11.284;2024-01-30T12:33:00;98823.56;;;12.51;57.31
15932;BME280;8065;49.520;11.284;2024-01-30T12:35:32;98820.59;;;12.66;57.52
15932;BME280;8065;49.520;11.284;2024-01-30T12:38:01;98821.19;;;12.50;57.18
15932;BME280;8065;49.520;11.284;2024-01-30T12:40:33;98821.59;;;12.57;57.28
15932;BME280;8065;49.520;11.284;2024-01-30T12:43:02;98811.88;;;12.74;57.34
15932;BME280;8065;49.520;11.284;2024-01-30T12:45:30;98820.59;;;12.66;57.62
15932;BME280;8065;49.520;11.284;2024-01-30T12:47:58;98818.59;;;12.86;57.40
15932;BME280;8065;49.520;11.284;2024-01-30T12:50:27;98805.00;;;12.60;57.56
15932;BME280;8065;49.520;11.284;2024-01-30T12:52:57;98811.09;;;12.74;57.54
15932;BME280;8065;49.520;11.284;2024-01-30T12:55:26;98808.63;;;12.77;57.63
15932;BME280;8065;49.520;11.284;2024-01-30T12:57:55;98807.16;;;12.71;57.50
15932;BME280;8065;49.520;11.284;2024-01-30T13:00:24;98805.88;;;12.69;57.37
15932;BME280;8065;49.520;11.284;2024-01-30T13:02:52;98809.72;;;12.76;57.92
15932;BME280;8065;49.520;11.284;2024-01-30T13:05:21;98801.19;;;12.88;57.47
15932;BME280;8065;49.520;11.284;2024-01-30T13:07:50;98803.38;;;12.86;57.67
15932;BME280;8065;49.520;11.284;2024-01-30T13:10:21;98789.38;;;13.03;57.50
15932;BME280;8065;49.520;11.284;2024-01-30T13:12:50;98788.28;;;13.04;57.41
15932;BME280;8065;49.520;11.284;2024-01-30T13:15:18;98793.31;;;13.05;57.59
15932;BME280;8065;49.520;11.284;2024-01-30T13:17:48;98789.25;;;12.86;57.66